Time;durP1;ratioP1;P1;durP2;ratioP2;P2;SDS_P1;SDS_P2;PMS_P1;PMS_P2;Temp;Humidity;BMP_temperature;BMP_pressure;BME280_temperature;BME280_humidity;BME280_pressure;Samples;Min_cycle;Max_cycle;Signal;HPM_P1;HPM_P2
2022/10/15 00:00:42;;;;;;;16.48;10.58;;;;;;;2.79;68.58;101149.52;1673951;85;20962;-80
2022/10/15 00:03:09;;;;;;;17.45;10.85;;;;;;;2.80;68.75;101149.50;1647514;86;22459;-80
2022/10/15 00:05:38;;;;;;;20.15;11.63;;;;;;;2.78;68.85;101149.98;1676149;85;21046;-80
2022/10/15 00:08:05;;;;;;;22.32;13.85;;;;;;;2.75;68.92;101153.16;1647740;86;21069;-81
2022/10/15 00:10:33;;;;;;;24.37;14.40;;;;;;;2.73;68.88;101149.30;1676576;85;21165;-80
2022/10/15 00:13:00;;;;;;;22.20;13.85;;;;;;;2.72;68.83;101146.75;1635074;87;21005;-80
2022/10/15 00:15:27;;;;;;;20.43;13.13;;;;;;;2.70;68.74;101149.42;1668726;85;21843;-80
2022/10/15 00:17:53;;;;;;;21.12;12.80;;;;;;;2.67;68.79;101146.05;1647579;86;21033;-80
2022/10/15 00:20:21;;;;;;;19.67;12.88;;;;;;;2.63;68.89;101147.91;1676852;85;20961;-81
2022/10/15 00:22:47;;;;;;;21.70;13.13;;;;;;;2.61;68.85;101147.58;1649392;86;21020;-81
2022/10/15 00:25:14;;;;;;;19.07;12.23;;;;;;;2.58;68.88;101145.91;1676446;85;20982;-81
2022/10/15 00:27:40;;;;;;;19.12;12.07;;;;;;;2.58;68.99;101146.75;1647782;86;22181;-80
2022/10/15 00:30:09;;;;;;;15.98;10.80;;;;;;;2.60;69.09;101149.30;1661638;85;21081;-80
2022/10/15 00:32:35;;;;;;;17.73;11.65;;;;;;;2.61;69.00;101150.19;1624787;86;21491;-81
2022/10/15 00:35:04;;;;;;;18.42;12.13;;;;;;;2.57;68.87;101152.02;1677047;85;21032;-81
2022/10/15 00:37:31;;;;;;;23.67;12.80;;;;;;;2.53;68.83;101151.29;1647517;86;21437;-80
2022/10/15 00:39:57;;;;;;;20.88;13.13;;;;;;;2.49;68.92;101148.81;1676337;85;22558;-81
2022/10/15 00:42:23;;;;;;;23.00;13.68;;;;;;;2.44;68.80;101149.44;1647285;86;21211;-81
2022/10/15 00:44:56;;;;;;;21.12;13.43;;;;;;;2.40;68.92;101148.67;1654999;85;21025;-81
2022/10/15 00:47:40;;;;;;;24.23;15.68;;;;;;;2.40;69.02;101142.61;1627838;86;20990;-80
2022/10/15 00:50:15;;;;;;;28.30;17.73;;;;;;;2.39;69.11;101150.03;1631247;86;21037;-81
2022/10/15 00:52:58;;;;;;;32.85;20.57;;;;;;;2.40;69.33;101151.73;1642797;86;22460;-80
2022/10/15 00:55:34;;;;;;;36.45;21.80;;;;;;;2.38;69.19;101147.88;1649011;86;21065;-81
2022/10/15 00:58:09;;;;;;;42.67;25.60;;;;;;;2.36;69.17;101154.91;1647730;86;20966;-81
2022/10/15 01:00:36;;;;;;;43.17;27.82;;;;;;;2.34;69.06;101150.66;1676760;85;21025;-81
2022/10/15 01:03:03;;;;;;;48.35;30.70;;;;;;;2.28;69.09;101152.99;1646944;86;21456;-79
2022/10/15 01:05:30;;;;;;;46.85;27.30;;;;;;;2.27;69.22;101150.84;1621989;87;22241;-81
2022/10/15 01:07:58;;;;;;;46.50;25.52;;;;;;;2.30;69.29;101150.73;1648868;86;21013;-81
2022/10/15 01:10:29;;;;;;;35.52;22.70;;;;;;;2.32;69.44;101154.61;1622814;88;21033;-81
2022/10/15 01:13:14;;;;;;;37.70;21.23;;;;;;;2.33;69.39;101156.31;1620046;87;21068;-81
2022/10/15 01:15:50;;;;;;;32.63;21.73;;;;;;;2.30;69.36;101153.34;1633004;87;20985;-81
2022/10/15 01:18:27;;;;;;;37.48;23.75;;;;;;;2.28;69.25;101157.75;1621051;87;22405;-80
2022/10/15 01:21:06;;;;;;;42.45;26.12;;;;;;;2.23;69.15;101149.70;1618007;88;21094;-81
2022/10/15 01:24:27;;;;;;;46.48;28.87;;;;;;;2.20;69.17;101151.08;1640079;86;21029;-80
2022/10/15 01:27:16;;;;;;;45.85;27.50;;;;;;;2.16;69.10;101151.64;1648868;86;20989;-81
2022/10/15 01:30:18;;;;;;;45.23;25.43;;;;;;;2.12;69.21;101145.27;1649690;86;21036;-81
2022/10/15 01:33:21;;;;;;;38.78;23.73;;;;;;;2.13;69.43;101147.00;1647706;87;22488;-80
2022/10/15 01:36:08;;;;;;;38.53;24.07;;;;;;;2.14;69.49;101151.30;1676204;85;21032;-81
2022/10/15 01:38:46;;;;;;;37.50;22.82;;;;;;;2.14;69.51;101156.06;1559092;90;21471;-80
2022/10/15 01:41:21;;;;;;;35.30;22.32;;;;;;;2.09;69.41;101161.00;1661813;85;21428;-81
2022/10/15 01:44:07;;;;;;;36.03;22.32;;;;;;;2.08;69.55;101158.00;1679637;84;21060;-81
2022/10/15 01:46:48;;;;;;;32.78;20.95;;;;;;;2.04;69.51;101152.05;1704306;83;21857;-80
2022/10/15 01:49:20;;;;;;;31.55;20.95;;;;;;;2.03;69.57;101154.67;1682028;84;21552;-80
2022/10/15 01:51:47;;;;;;;33.60;20.92;;;;;;;2.03;69.71;101162.48;1667028;85;21029;-82
2022/10/15 01:54:16;;;;;;;30.40;19.95;;;;;;;2.02;69.58;101160.34;1639168;86;21050;-81
2022/10/15 01:56:48;;;;;;;34.98;19.67;;;;;;;1.99;69.58;101159.14;1683989;85;21043;-81
2022/10/15 01:59:21;;;;;;;33.38;19.50;;;;;;;1.98;69.64;101158.29;1695446;83;21055;-80
2022/10/15 02:01:48;;;;;;;33.02;20.25;;;;;;;1.98;69.62;101153.53;1710850;83;21698;-81
2022/10/15 02:04:21;;;;;;;31.62;20.70;;;;;;;1.96;69.61;101167.06;1713627;83;20982;-81
2022/10/15 02:07:07;;;;;;;33.98;19.87;;;;;;;1.94;69.59;101167.11;1713605;83;21006;-81
2022/10/15 02:10:19;;;;;;;31.37;19.92;;;;;;;1.93;69.50;101165.83;1713490;83;20978;-80
2022/10/15 02:13:12;;;;;;;33.38;20.65;;;;;;;1.89;69.46;101169.45;1681761;83;21592;-82
2022/10/15 02:15:52;;;;;;;31.90;18.50;;;;;;;1.86;69.53;101170.85;1638212;86;27851;-81
2022/10/15 02:18:33;;;;;;;29.37;18.62;;;;;;;1.87;69.76;101169.95;1705198;83;21018;-81
2022/10/15 02:21:31;;;;;;;31.25;19.27;;;;;;;1.86;69.68;101169.09;1713341;83;21157;-81
2022/10/15 02:24:12;;;;;;;28.65;18.95;;;;;;;1.83;69.58;101176.13;1695518;83;21041;-81
2022/10/15 02:26:42;;;;;;;27.37;18.00;;;;;;;1.80;69.58;101176.23;1711995;83;20955;-81
2022/10/15 02:29:12;;;;;;;30.62;18.40;;;;;;;1.76;69.65;101179.84;1676533;85;21035;-82
2022/10/15 02:31:42;;;;;;;24.70;16.75;;;;;;;1.77;69.62;101176.34;1656999;86;21455;-82
2022/10/15 02:34:11;;;;;;;26.97;17.23;;;;;;;1.77;69.61;101184.16;1635918;87;21055;-81
2022/10/15 02:36:39;;;;;;;26.68;16.12;;;;;;;1.77;69.57;101182.85;1703538;83;21030;-82
2022/10/15 02:39:07;;;;;;;27.45;16.50;;;;;;;1.76;69.59;101187.66;1713149;83;21835;-82
2022/10/15 02:41:37;;;;;;;27.15;16.97;;;;;;;1.72;69.58;101181.22;1713162;83;21019;-81
2022/10/15 02:44:04;;;;;;;30.37;16.75;;;;;;;1.70;69.54;101180.42;1649578;83;21100;-82
2022/10/15 02:46:32;;;;;;;26.97;16.00;;;;;;;1.70;69.62;101183.47;1681897;83;20982;-79
2022/10/15 02:48:58;;;;;;;28.65;15.53;;;;;;;1.68;69.59;101184.83;1684575;85;21089;-81
2022/10/15 02:51:26;;;;;;;27.73;15.63;;;;;;;1.66;69.60;101183.17;1683741;85;21940;-81
2022/10/15 02:53:52;;;;;;;24.57;14.90;;;;;;;1.66;69.59;101189.23;1684426;85;21059;-82
2022/10/15 02:56:19;;;;;;;21.50;14.18;;;;;;;1.65;69.59;101187.53;1684529;85;21019;-82
2022/10/15 02:58:46;;;;;;;25.12;15.05;;;;;;;1.63;69.58;101185.39;1684032;85;21045;-82
2022/10/15 03:01:13;;;;;;;26.62;17.17;;;;;;;1.63;69.63;101188.45;1684600;85;21010;-81
2022/10/15 03:03:40;;;;;;;30.77;17.02;;;;;;;1.64;69.81;101188.85;1681751;83;21873;-81
2022/10/15 03:06:08;;;;;;;31.82;18.07;;;;;;;1.68;69.86;101193.09;1712986;83;21028;-81
2022/10/15 03:08:35;;;;;;;27.60;16.97;;;;;;;1.67;69.78;101189.63;1713220;83;20987;-82
2022/10/15 03:11:04;;;;;;;27.07;16.65;;;;;;;1.68;69.77;101194.39;1713201;83;21027;-82
2022/10/15 03:13:36;;;;;;;26.48;17.02;;;;;;;1.63;69.71;101189.30;1713187;83;21007;-81
2022/10/15 03:16:07;;;;;;;36.48;18.82;;;;;;;1.62;69.72;101192.81;1713376;83;22296;-82
2022/10/15 03:18:33;;;;;;;29.55;17.65;;;;;;;1.62;69.81;101190.20;1713073;83;21099;-81
2022/10/15 03:21:02;;;;;;;33.10;17.15;;;;;;;1.64;69.84;101187.55;1674411;83;21564;-81
2022/10/15 03:23:29;;;;;;;32.73;19.10;;;;;;;1.63;69.81;101193.20;1708389;83;21070;-83
2022/10/15 03:25:57;;;;;;;36.88;20.80;;;;;;;1.63;69.86;101191.91;1711622;83;21018;-82
2022/10/15 03:28:25;;;;;;;34.15;20.15;;;;;;;1.64;69.94;101192.34;1713183;83;22806;-82
2022/10/15 03:30:52;;;;;;;35.20;20.23;;;;;;;1.64;69.92;101191.03;1712969;83;20971;-81
2022/10/15 03:33:19;;;;;;;34.53;20.25;;;;;;;1.62;69.88;101190.20;1713010;83;21021;-81
2022/10/15 03:35:46;;;;;;;34.80;21.07;;;;;;;1.59;69.90;101195.52;1712709;83;21134;-82
2022/10/15 03:38:13;;;;;;;33.05;20.92;;;;;;;1.59;70.03;101189.00;1671334;83;21006;-82
2022/10/15 03:40:40;;;;;;;38.20;22.37;;;;;;;1.59;70.14;101189.45;1611274;88;22594;-81
2022/10/15 03:43:11;;;;;;;35.43;21.97;;;;;;;1.59;70.19;101190.30;1594425;90;20981;-82
2022/10/15 03:45:38;;;;;;;37.65;22.70;;;;;;;1.59;70.17;101190.75;1596756;89;21025;-81
2022/10/15 03:48:06;;;;;;;35.48;22.17;;;;;;;1.56;70.17;101189.10;1631466;86;21082;-81
2022/10/15 03:50:33;;;;;;;37.28;22.70;;;;;;;1.57;70.21;101186.05;1632308;86;21001;-81
2022/10/15 03:53:05;;;;;;;39.40;22.37;;;;;;;1.57;70.21;101192.11;1632267;88;22939;-82
2022/10/15 03:55:32;;;;;;;38.25;23.57;;;;;;;1.57;70.27;101187.35;1645445;85;21428;-81
2022/10/15 03:57:59;;;;;;;36.95;22.90;;;;;;;1.56;70.43;101191.70;1647026;84;21108;-82
2022/10/15 04:00:26;;;;;;;35.13;21.73;;;;;;;1.56;70.50;101193.01;1646221;87;21044;-81
2022/10/15 04:02:54;;;;;;;35.98;21.93;;;;;;;1.56;70.47;101189.55;1646407;85;21008;-82
2022/10/15 04:05:24;;;;;;;36.10;22.32;;;;;;;1.54;70.47;101192.63;1646016;86;22410;-82
2022/10/15 04:07:52;;;;;;;36.15;21.33;;;;;;;1.55;70.56;101199.11;1646472;84;21032;-82
2022/10/15 04:10:19;;;;;;;37.93;21.48;;;;;;;1.54;70.69;101198.69;1646353;85;21016;-82
2022/10/15 04:12:46;;;;;;;33.23;21.25;;;;;;;1.54;70.74;101202.59;1646926;85;21190;-79
2022/10/15 04:15:14;;;;;;;32.88;20.50;;;;;;;1.54;70.81;101203.03;1646161;87;21060;-79
2022/10/15 04:17:43;;;;;;;35.98;20.17;;;;;;;1.52;70.93;101201.78;1646432;84;22510;-79
2022/10/15 04:20:11;;;;;;;35.60;20.40;;;;;;;1.54;70.96;101205.64;1646092;86;20945;-80
2022/10/15 04:22:38;;;;;;;35.25;20.40;;;;;;;1.52;71.10;101203.09;1646068;85;21000;-80
2022/10/15 04:25:06;;;;;;;34.15;20.50;;;;;;;1.51;71.15;101207.89;1646050;87;21439;-81
2022/10/15 04:27:33;;;;;;;39.75;21.70;;;;;;;1.53;71.22;101203.48;1647014;85;21096;-80
2022/10/15 04:30:06;;;;;;;34.35;20.50;;;;;;;1.53;71.21;101203.48;1673180;85;22433;-80
2022/10/15 04:32:33;;;;;;;31.65;20.30;;;;;;;1.53;71.33;101203.94;1673371;85;20955;-80
2022/10/15 04:35:00;;;;;;;35.13;20.37;;;;;;;1.55;71.41;101203.02;1659532;84;21055;-81
2022/10/15 04:37:33;;;;;;;34.92;21.55;;;;;;;1.59;71.46;101207.67;1652112;85;21058;-81
2022/10/15 04:40:00;;;;;;;36.17;20.60;;;;;;;1.60;71.44;101203.72;1645546;86;20976;-80
2022/10/15 04:42:30;;;;;;;38.15;21.25;;;;;;;1.60;71.34;101204.17;1653161;85;21865;-80
2022/10/15 04:44:56;;;;;;;40.85;21.95;;;;;;;1.60;71.34;101197.66;1661936;83;21073;-80
2022/10/15 04:47:23;;;;;;;39.03;21.65;;;;;;;1.60;71.44;101201.12;1661349;83;21408;-80
2022/10/15 04:49:55;;;;;;;40.88;22.35;;;;;;;1.61;71.51;101204.13;1648232;85;21373;-81
2022/10/15 04:52:26;;;;;;;37.80;22.80;;;;;;;1.62;71.58;101199.77;1671049;85;21108;-80
2022/10/15 04:54:57;;;;;;;38.92;23.12;;;;;;;1.62;71.66;101201.07;1673333;85;21550;-80
2022/10/15 04:57:25;;;;;;;47.78;24.27;;;;;;;1.63;71.73;101198.87;1672924;85;21405;-80
2022/10/15 04:59:53;;;;;;;36.90;22.25;;;;;;;1.66;71.70;101202.25;1671744;85;21081;-81
2022/10/15 05:02:21;;;;;;;42.08;23.95;;;;;;;1.67;71.71;101201.35;1647820;85;20993;-80
2022/10/15 05:04:50;;;;;;;43.45;24.35;;;;;;;1.71;71.86;101203.41;1656031;85;20994;-81
2022/10/15 05:07:17;;;;;;;38.58;23.02;;;;;;;1.75;71.96;101207.64;1657362;83;22565;-80
2022/10/15 05:09:45;;;;;;;36.45;22.73;;;;;;;1.82;72.05;101207.84;1683653;84;20978;-81
2022/10/15 05:12:13;;;;;;;38.80;23.75;;;;;;;1.88;72.10;101208.97;1684257;84;20975;-80
2022/10/15 05:14:40;;;;;;;34.85;22.10;;;;;;;1.96;72.07;101206.14;1684318;85;21090;-80
2022/10/15 05:17:18;;;;;;;32.98;20.40;;;;;;;2.01;72.14;101215.95;1648118;87;21059;-80
2022/10/15 05:19:46;;;;;;;32.20;19.77;;;;;;;2.06;72.22;101212.77;1634697;86;20973;-81
2022/10/15 05:22:14;;;;;;;29.45;19.45;;;;;;;2.12;72.37;101210.41;1622360;88;21345;-80
2022/10/15 05:24:43;;;;;;;32.17;19.67;;;;;;;2.20;72.49;101210.58;1621366;87;21022;-81
2022/10/15 05:27:28;;;;;;;32.85;18.07;;;;;;;2.29;72.57;101212.89;1670424;85;21069;-82
2022/10/15 05:29:55;;;;;;;25.27;17.23;;;;;;;2.40;72.69;101214.30;1656537;85;21515;-81
2022/10/15 05:32:24;;;;;;;29.00;18.37;;;;;;;2.52;72.86;101213.48;1662495;85;21888;-81
2022/10/15 05:34:51;;;;;;;32.42;19.17;;;;;;;2.65;72.97;101220.44;1676488;85;20967;-82
2022/10/15 05:37:18;;;;;;;34.33;19.20;;;;;;;2.77;73.17;101219.16;1634743;85;21029;-82
2022/10/15 05:39:45;;;;;;;32.42;19.30;;;;;;;2.92;73.33;101216.05;1622040;88;20993;-82
2022/10/15 05:42:12;;;;;;;31.23;19.17;;;;;;;3.06;73.43;101216.86;1622822;88;20997;-80
2022/10/15 05:44:40;;;;;;;34.27;20.45;;;;;;;3.21;73.56;101224.63;1635205;85;22512;-82
2022/10/15 05:47:11;;;;;;;28.80;19.60;;;;;;;3.34;73.62;101228.49;1673965;84;21000;-82
2022/10/15 05:49:39;;;;;;;32.42;20.12;;;;;;;3.48;73.71;101224.95;1686482;85;21515;-82
2022/10/15 05:52:08;;;;;;;36.85;20.45;;;;;;;3.64;73.83;101221.30;1679163;85;21488;-81
2022/10/15 05:54:37;;;;;;;32.90;20.48;;;;;;;3.80;73.92;101222.44;1622745;86;21024;-82
2022/10/15 05:57:04;;;;;;;36.28;20.17;;;;;;;3.96;74.09;101224.88;1655041;86;21923;-82
2022/10/15 05:59:31;;;;;;;32.75;21.68;;;;;;;4.14;74.32;101231.13;1654997;86;21035;-79
2022/10/15 06:01:59;;;;;;;34.30;20.15;;;;;;;4.35;74.61;101228.60;1655216;83;21117;-81
2022/10/15 06:04:26;;;;;;;58.45;36.98;;;;;;;4.54;74.78;101226.48;1655204;86;21122;-82
2022/10/15 06:06:52;;;;;;;47.50;31.40;;;;;;;4.74;74.97;101227.44;1655818;86;21480;-81
2022/10/15 06:09:19;;;;;;;42.33;26.27;;;;;;;4.92;75.01;101228.40;1653842;86;21876;-81
2022/10/15 06:11:47;;;;;;;41.45;26.97;;;;;;;5.08;75.08;101225.53;1632264;86;21038;-82
2022/10/15 06:14:15;;;;;;;42.48;27.37;;;;;;;5.25;75.16;101231.36;1683176;85;20967;-80
2022/10/15 06:16:44;;;;;;;36.85;22.75;;;;;;;5.41;75.13;101232.40;1687816;83;21006;-81
2022/10/15 06:19:11;;;;;;;35.35;22.73;;;;;;;5.55;75.08;101233.92;1713211;84;21011;-81
2022/10/15 06:21:37;;;;;;;39.65;22.75;;;;;;;5.69;74.92;101231.98;1713265;84;21840;-80
2022/10/15 06:24:05;;;;;;;40.20;23.12;;;;;;;5.82;74.88;101230.98;1712497;83;20971;-80
2022/10/15 06:26:31;;;;;;;35.43;21.55;;;;;;;5.97;74.86;101229.83;1709995;83;20966;-80
2022/10/15 06:28:58;;;;;;;32.93;21.62;;;;;;;6.14;74.76;101232.12;1633439;88;21031;-81
2022/10/15 06:31:25;;;;;;;38.63;21.80;;;;;;;6.28;74.50;101231.03;1656835;86;21046;-81
2022/10/15 06:33:53;;;;;;;31.27;20.40;;;;;;;6.39;74.29;101226.11;1633614;88;22353;-81
2022/10/15 06:36:20;;;;;;;32.73;22.15;;;;;;;6.55;74.19;101231.44;1703976;83;21148;-79
2022/10/15 06:38:47;;;;;;;34.08;21.55;;;;;;;6.67;73.93;101233.95;1709531;83;21121;-79
2022/10/15 06:41:15;;;;;;;37.13;21.80;;;;;;;6.77;73.75;101238.67;1712070;83;21022;-81
2022/10/15 06:43:42;;;;;;;37.50;21.70;;;;;;;6.88;73.65;101228.94;1707196;83;20964;-80
2022/10/15 06:46:09;;;;;;;33.13;20.82;;;;;;;7.03;73.55;101232.55;1678247;84;21920;-80
2022/10/15 06:48:36;;;;;;;38.98;22.32;;;;;;;7.17;73.50;101237.95;1670114;85;21025;-80
2022/10/15 06:51:03;;;;;;;37.17;23.50;;;;;;;7.33;73.52;101234.91;1671477;84;20954;-80
2022/10/15 06:53:30;;;;;;;34.20;22.87;;;;;;;7.49;73.34;101237.59;1643491;85;21062;-80
2022/10/15 06:55:58;;;;;;;36.23;24.27;;;;;;;7.66;73.17;101240.17;1653825;86;21007;-80
2022/10/15 06:58:25;;;;;;;35.63;23.50;;;;;;;7.83;73.03;101234.02;1653258;85;22752;-81
2022/10/15 07:00:52;;;;;;;34.65;21.07;;;;;;;8.00;72.88;101239.19;1653212;85;21001;-78
2022/10/15 07:03:19;;;;;;;31.55;20.25;;;;;;;8.18;72.70;101232.53;1645194;86;21034;-72
2022/10/15 07:05:46;;;;;;;29.05;19.48;;;;;;;8.34;72.64;101232.06;1645351;86;21028;-73
2022/10/15 07:08:12;;;;;;;31.93;18.62;;;;;;;8.49;72.56;101228.61;1645542;87;20966;-71
2022/10/15 07:10:40;;;;;;;28.20;18.57;;;;;;;8.68;72.56;101228.84;1645449;86;20993;-72
2022/10/15 07:13:09;;;;;;;26.05;16.73;;;;;;;8.91;72.48;101227.05;1643628;87;48740;-73
2022/10/15 07:15:36;;;;;;;34.13;24.23;;;;;;;9.11;72.04;101231.13;1643614;86;21877;-74
2022/10/15 07:18:02;;;;;;;40.88;28.05;;;;;;;9.28;71.52;101227.02;1644720;86;21424;-74
2022/10/15 07:20:31;;;;;;;25.97;16.82;;;;;;;9.48;70.94;101229.77;1643773;86;21151;-75
2022/10/15 07:23:00;;;;;;;25.60;17.75;;;;;;;9.67;70.25;101232.97;1626858;87;22596;-75
2022/10/15 07:25:28;;;;;;;25.52;18.73;;;;;;;9.83;69.65;101230.67;1643555;87;21017;-75
2022/10/15 07:27:56;;;;;;;23.65;15.83;;;;;;;9.97;69.15;101230.67;1644372;84;21017;-75
2022/10/15 07:30:26;;;;;;;23.42;14.43;;;;;;;10.13;68.16;101231.84;1644648;84;21364;-74
2022/10/15 07:32:58;;;;;;;22.32;15.08;;;;;;;10.26;67.30;101236.29;1644452;86;20965;-74
2022/10/15 07:35:25;;;;;;;21.27;12.65;;;;;;;10.42;66.29;101233.95;1654535;86;21831;-74
2022/10/15 07:37:52;;;;;;;16.73;11.25;;;;;;;10.56;65.56;101235.25;1670844;85;21016;-75
2022/10/15 07:40:19;;;;;;;16.00;9.93;;;;;;;10.65;64.53;101232.00;1670830;86;20998;-75
2022/10/15 07:42:56;;;;;;;16.42;9.68;;;;;;;10.78;63.46;101228.91;1670643;86;21322;-74
2022/10/15 07:45:26;;;;;;;15.28;8.55;;;;;;;10.88;62.62;101232.63;1670741;85;20957;-78
2022/10/15 07:47:53;;;;;;;13.53;8.55;;;;;;;10.98;61.95;101232.86;1683661;85;21775;-78
2022/10/15 07:50:20;;;;;;;17.82;8.88;;;;;;;11.08;61.22;101230.44;1684224;85;21085;-78
2022/10/15 07:52:47;;;;;;;18.05;10.20;;;;;;;11.18;60.42;101232.34;1670136;83;21081;-78
2022/10/15 07:55:14;;;;;;;16.82;10.13;;;;;;;11.29;60.47;101230.31;1656601;86;21003;-78
2022/10/15 07:57:40;;;;;;;17.10;11.10;;;;;;;11.41;60.86;101232.11;1623133;87;21585;-77
2022/10/15 08:00:09;;;;;;;15.05;10.85;;;;;;;11.53;60.57;101234.84;1594988;88;22395;-78
2022/10/15 08:02:42;;;;;;;14.38;10.78;;;;;;;11.64;60.68;101241.08;1596769;89;21033;-78
2022/10/15 08:05:10;;;;;;;17.02;11.48;;;;;;;11.74;60.45;101238.63;1608570;86;21013;-78
2022/10/15 08:07:37;;;;;;;19.48;13.10;;;;;;;11.78;59.91;101240.60;1676138;85;21084;-78
2022/10/15 08:10:07;;;;;;;17.55;9.88;;;;;;;11.87;59.54;101241.28;1617295;86;20969;-78
2022/10/15 08:12:35;;;;;;;17.00;9.90;;;;;;;11.97;57.29;101242.34;1673947;85;21931;-78
2022/10/15 08:15:02;;;;;;;15.08;10.10;;;;;;;12.09;56.56;101235.31;1673989;84;20967;-78
2022/10/15 08:17:31;;;;;;;17.27;10.00;;;;;;;12.21;56.28;101241.05;1650111;86;21012;-74
2022/10/15 08:19:58;;;;;;;17.87;10.28;;;;;;;12.31;55.52;101238.94;1712077;83;21046;-77
2022/10/15 08:22:24;;;;;;;17.75;10.00;;;;;;;12.45;54.84;101234.42;1713002;83;21455;-77
2022/10/15 08:24:53;;;;;;;14.55;9.38;;;;;;;12.55;54.39;101240.28;1712579;83;21864;-76
2022/10/15 08:27:20;;;;;;;19.48;10.55;;;;;;;12.65;53.83;101244.91;1667778;83;21454;-77
2022/10/15 08:29:47;;;;;;;13.48;7.70;;;;;;;12.72;53.10;101244.31;1656483;86;21101;-77
2022/10/15 08:32:14;;;;;;;15.45;8.15;;;;;;;12.77;51.26;101248.80;1681905;85;20983;-78
2022/10/15 08:34:41;;;;;;;12.53;7.35;;;;;;;12.81;51.15;101247.60;1682830;85;21039;-78
2022/10/15 08:37:09;;;;;;;10.85;5.62;;;;;;;12.88;50.59;101249.33;1663406;83;21505;-77
2022/10/15 08:39:35;;;;;;;10.45;4.92;;;;;;;12.93;49.42;101249.80;1656609;86;21035;-77
2022/10/15 08:42:06;;;;;;;16.75;13.13;;;;;;;13.01;48.91;101244.77;1656202;85;20983;-78
2022/10/15 08:44:38;;;;;;;52.48;37.23;;;;;;;13.09;47.72;101239.73;1669730;85;20986;-78
2022/10/15 08:47:27;;;;;;;18.07;10.72;;;;;;;13.15;47.22;101239.77;1675922;85;21006;-78
2022/10/15 08:49:56;;;;;;;11.60;7.90;;;;;;;13.24;47.28;101247.53;1670860;84;21939;-77
2022/10/15 08:52:45;;;;;;;11.10;7.20;;;;;;;13.27;46.19;101241.98;1670528;85;20993;-77
2022/10/15 08:55:15;;;;;;;10.53;6.87;;;;;;;13.30;47.10;101240.41;1656170;84;21011;-77
2022/10/15 08:58:12;;;;;;;14.38;5.80;;;;;;;13.40;47.48;101248.02;1650442;85;21215;-77
2022/10/15 09:00:44;;;;;;;11.53;7.33;;;;;;;13.40;47.18;101245.37;1660124;86;21005;-77
2022/10/15 09:03:39;;;;;;;13.25;7.78;;;;;;;13.26;47.47;101246.93;1671203;86;21864;-77
2022/10/15 09:06:19;;;;;;;10.60;6.28;;;;;;;13.13;49.04;101255.80;1646098;85;20958;-78
2022/10/15 09:08:59;;;;;;;7.12;5.10;;;;;;;13.05;49.00;101258.19;1643895;87;21048;-77
2022/10/15 09:11:50;;;;;;;9.05;4.60;;;;;;;13.06;48.75;101251.91;1643449;87;20973;-78
2022/10/15 09:14:25;;;;;;;10.15;4.50;;;;;;;13.06;47.90;101254.56;1643788;87;21060;-77
2022/10/15 09:16:51;;;;;;;8.38;4.85;;;;;;;13.05;47.76;101253.36;1645065;85;21809;-77
2022/10/15 09:19:21;;;;;;;8.93;5.25;;;;;;;13.04;48.19;101242.39;1643768;87;21084;-78
2022/10/15 09:21:50;;;;;;;8.78;5.25;;;;;;;13.05;49.21;101245.41;1643864;86;21017;-75
2022/10/15 09:24:25;;;;;;;11.28;6.25;;;;;;;13.05;50.26;101254.69;1642394;87;21078;-77
2022/10/15 09:27:21;;;;;;;12.33;6.80;;;;;;;13.10;50.06;101248.53;1642935;87;20968;-78
2022/10/15 09:30:37;;;;;;;9.08;5.85;;;;;;;13.13;49.57;101250.50;1650481;85;21872;-77
2022/10/15 09:33:17;;;;;;;11.10;4.87;;;;;;;13.16;49.47;101251.58;1650466;85;21374;-78
2022/10/15 09:35:49;;;;;;;7.25;4.50;;;;;;;13.13;50.35;101255.80;1647759;86;20969;-77
2022/10/15 09:38:52;;;;;;;7.08;3.87;;;;;;;13.15;50.92;101253.02;1650279;84;21444;-78
2022/10/15 09:41:40;;;;;;;4.35;2.65;;;;;;;13.12;50.29;101247.94;1642799;87;21060;-77
2022/10/15 09:44:12;;;;;;;8.45;3.90;;;;;;;12.98;50.51;101256.95;1651937;85;21918;-78
2022/10/15 09:46:45;;;;;;;8.18;3.90;;;;;;;13.03;51.38;101252.16;1674344;84;21034;-77
2022/10/15 09:49:26;;;;;;;5.55;3.70;;;;;;;13.21;51.37;101241.11;1682436;84;20999;-78
2022/10/15 09:52:14;;;;;;;5.72;3.92;;;;;;;13.37;51.23;101245.61;1661607;85;21545;-78
2022/10/15 09:54:55;;;;;;;9.93;3.80;;;;;;;13.53;51.13;101241.30;1682440;85;21026;-77
2022/10/15 09:57:22;;;;;;;6.10;3.20;;;;;;;13.80;49.93;101240.47;1682387;85;21815;-78
2022/10/15 09:59:54;;;;;;;8.53;3.70;;;;;;;13.96;48.73;101243.57;1688612;83;21083;-78
2022/10/15 10:02:23;;;;;;;6.23;3.37;;;;;;;14.00;47.36;101238.88;1704005;83;21039;-78
2022/10/15 10:04:49;;;;;;;5.47;3.70;;;;;;;14.10;47.34;101242.48;1707396;83;21026;-77
2022/10/15 10:07:34;;;;;;;6.80;3.85;;;;;;;14.35;47.92;101245.31;1667709;84;21168;-78
2022/10/15 10:10:25;;;;;;;10.72;3.55;;;;;;;14.55;48.51;101242.38;1654990;86;21821;-78
2022/10/15 10:12:52;;;;;;;5.67;3.40;;;;;;;14.75;45.91;101238.92;1635919;86;21038;-78
2022/10/15 10:15:34;;;;;;;4.47;2.92;;;;;;;14.94;45.69;101237.38;1654135;86;21098;-78
2022/10/15 10:18:05;;;;;;;5.12;2.87;;;;;;;14.96;45.00;101242.08;1654669;86;21003;-78
2022/10/15 10:20:32;;;;;;;6.15;2.85;;;;;;;14.80;42.94;101238.06;1654635;86;21083;-78
2022/10/15 10:23:04;;;;;;;7.67;3.58;;;;;;;14.62;44.25;101246.23;1653906;84;21948;-79
2022/10/15 10:25:36;;;;;;;5.15;3.33;;;;;;;14.56;45.06;101244.91;1662799;85;21026;-77
2022/10/15 10:28:13;;;;;;;6.60;2.50;;;;;;;14.52;45.75;101245.30;1654866;86;21049;-77
2022/10/15 10:31:02;;;;;;;6.00;2.90;;;;;;;14.41;44.79;101242.66;1668199;83;21051;-77
2022/10/15 10:33:46;;;;;;;3.90;2.70;;;;;;;14.35;45.63;101243.98;1710847;84;21081;-80
2022/10/15 10:36:33;;;;;;;5.42;2.67;;;;;;;14.42;46.22;101239.02;1711085;83;21890;-79
2022/10/15 10:39:13;;;;;;;7.08;2.77;;;;;;;14.37;45.96;101238.54;1710767;84;20967;-79
2022/10/15 10:41:59;;;;;;;5.20;2.47;;;;;;;14.31;46.20;101233.26;1705576;83;21532;-79
2022/10/15 10:44:32;;;;;;;4.22;2.70;;;;;;;14.22;44.67;101234.84;1666277;85;21026;-77
2022/10/15 10:47:14;;;;;;;4.20;2.30;;;;;;;14.18;45.34;101236.05;1692526;83;21010;-78
2022/10/15 10:49:46;;;;;;;4.97;2.15;;;;;;;14.31;44.40;101232.77;1714079;83;21989;-78
2022/10/15 10:52:31;;;;;;;4.22;2.05;;;;;;;14.37;44.15;101223.92;1718955;83;20974;-77
2022/10/15 10:55:18;;;;;;;9.63;2.05;;;;;;;14.44;42.72;101227.28;1718697;83;21077;-77
2022/10/15 10:57:55;;;;;;;4.85;2.12;;;;;;;14.48;42.91;101222.12;1719043;83;20985;-78
2022/10/15 11:00:44;;;;;;;5.22;1.98;;;;;;;14.67;42.37;101224.56;1673642;83;21033;-78
2022/10/15 11:03:41;;;;;;;2.70;2.00;;;;;;;14.82;41.43;101213.99;1662293;85;21783;-78
2022/10/15 11:06:33;;;;;;;3.60;2.00;;;;;;;15.04;41.38;101211.20;1710450;83;21070;-79
2022/10/15 11:09:19;;;;;;;2.72;1.57;;;;;;;15.19;39.85;101207.73;1718925;83;20987;-78
2022/10/15 11:12:09;;;;;;;7.40;1.62;;;;;;;15.21;39.76;101205.78;1714944;83;21046;-78
2022/10/15 11:15:13;;;;;;;9.50;2.20;;;;;;;15.32;40.13;101204.36;1713713;83;20978;-79
2022/10/15 11:18:11;;;;;;;4.42;1.65;;;;;;;15.48;39.06;101200.39;1665904;83;22524;-78
2022/10/15 11:21:07;;;;;;;4.47;1.75;;;;;;;15.59;38.44;101206.95;1662350;86;20950;-80
2022/10/15 11:24:04;;;;;;;3.65;1.55;;;;;;;15.59;37.35;101202.95;1662146;85;20995;-80
2022/10/15 11:26:58;;;;;;;3.05;1.50;;;;;;;15.46;37.60;101198.70;1662179;86;21006;-80
2022/10/15 11:29:32;;;;;;;3.08;1.65;;;;;;;15.46;38.56;101200.53;1661498;85;20998;-78
2022/10/15 11:32:25;;;;;;;5.35;1.55;;;;;;;15.66;38.79;101202.81;1681445;83;21827;-80
2022/10/15 11:35:31;;;;;;;4.03;1.60;;;;;;;15.69;38.31;101201.20;1689476;85;20978;-79
2022/10/15 11:38:21;;;;;;;3.27;1.60;;;;;;;15.76;38.67;101201.02;1690191;84;21540;-78
2022/10/15 11:41:33;;;;;;;6.60;1.75;;;;;;;15.89;37.41;101196.29;1689892;85;21065;-80
2022/10/15 11:44:40;;;;;;;3.00;1.77;;;;;;;15.91;38.21;101201.48;1688436;83;21462;-81
2022/10/15 11:47:27;;;;;;;3.17;1.65;;;;;;;16.18;38.16;101200.84;1652749;86;22680;-80